Columbus, Ohio
Traffic Map
Current Weather Conditions
Columbus, Ohio
Broken Clouds
Broken Clouds
80°
Feels Like: 81°
Wind Chill: 80° Ceiling: 12000
Heat Index: 81° Visibility: 10mi
Dew Point: 61° Wind: 7mph
Humidity: 52% Direction: 160° (SSE)
Pressure: 29.69in Gusts: 0mph
Raw Report DataKCMH 222351Z 16006KT 10SM SCT050 BKN120 BKN250 27/16 A2969 RMK AO2 LTG DSNT N AND NE SLP048 CB DSNT NE MOV NE T02670161 10294 20261 53002 $
Traffic Incident Summary
Active as of:
Severity:
Category:
InformationThere was an issue retrieving the traffic information for this location. Please try a different location or try again shortly.
Advertisements